CYN6 weather

Gravenhurst/Muskoka Bay Seaplane Base
Gravenhurst, Ontario, Canada

Public forecast

Using degrees Celsius for public forecast. Weather courtesy of forecast.io.

METAR (pilot weather report)

Closest report is Muskoka Airport, 4.7 nm (8.7 km) ENE. Retrieved 2019/05/20 00:07 UTC (47 minutes ago):

CYQA 200007Z AUTO 24013G20KT 200V280 9SM -RA BKN065 OVC078 16/14 A2969 RMK PRESRR SLP058 DENSITY ALT 1500FT

TAF (pilot weather forecast)

Closest forecast is Muskoka Airport, 4.7 nm (8.7 km) ENE. Retrieved 2019/05/19 20:00 UTC (5 hours ago):

TAF CYQA 191938Z 1920/2002 13010KT P6SM BKN060 TEMPO 1920/1922 4SM -SHRA VCTS BR BKN060CB FM192200 15012G22KT P6SM BKN040 TEMPO 1922/2002 5SM -SHRA BR PROB30 1922/2002 VRB15G30KT 2SM TSRA BR BKN040CB RMK FCST BASED ON AUTO OBS. NXT FCST WILL BE ISSUED AT 201145Z